sensor_id;sensor_type;location;lat;lon;timestamp;pressure;altitude;pressure_sealevel;temperature;humidity
4972;BME280;2501;51.214;6.768;2023-10-19T00:00:54;99164.69;;;10.62;100.00
4972;BME280;2501;51.214;6.768;2023-10-19T00:03:22;99163.63;;;10.72;100.00
4972;BME280;2501;51.214;6.768;2023-10-19T00:05:52;99156.69;;;10.69;100.00
4972;BME280;2501;51.214;6.768;2023-10-19T00:08:18;99155.66;;;10.75;100.00
4972;BME280;2501;51.214;6.768;2023-10-19T00:10:52;99147.94;;;10.69;100.00
4972;BME280;2501;51.214;6.768;2023-10-19T00:13:27;99156.72;;;10.68;100.00
4972;BME280;2501;51.214;6.768;2023-10-19T00:15:57;99152.31;;;10.70;100.00
4972;BME280;2501;51.214;6.768;2023-10-19T00:18:23;99154.94;;;10.68;100.00
4972;BME280;2501;51.214;6.768;2023-10-19T00:20:54;99159.31;;;10.68;100.00
4972;BME280;2501;51.214;6.768;2023-10-19T00:23:25;99156.69;;;10.69;100.00
4972;BME280;2501;51.214;6.768;2023-10-19T00:26:01;99141.88;;;10.67;100.00
4972;BME280;2501;51.214;6.768;2023-10-19T00:28:33;99159.28;;;10.71;100.00
4972;BME280;2501;51.214;6.768;2023-10-19T00:31:04;99147.09;;;10.68;100.00
4972;BME280;2501;51.214;6.768;2023-10-19T00:33:34;99145.31;;;10.70;100.00
4972;BME280;2501;51.214;6.768;2023-10-19T00:36:04;99142.63;;;10.73;100.00
4972;BME280;2501;51.214;6.768;2023-10-19T00:38:39;99143.44;;;10.75;100.00
4972;BME280;2501;51.214;6.768;2023-10-19T00:41:16;99146.03;;;10.77;100.00
4972;BME280;2501;51.214;6.768;2023-10-19T00:43:50;99144.28;;;10.76;100.00
4972;BME280;2501;51.214;6.768;2023-10-19T00:46:23;99143.34;;;10.80;100.00
4972;BME280;2501;51.214;6.768;2023-10-19T00:48:59;99150.25;;;10.84;100.00
4972;BME280;2501;51.214;6.768;2023-10-19T00:51:36;99147.59;;;10.86;100.00
4972;BME280;2501;51.214;6.768;2023-10-19T00:54:22;99146.69;;;10.88;100.00
4972;BME280;2501;51.214;6.768;2023-10-19T00:57:00;99150.13;;;10.90;100.00
4972;BME280;2501;51.214;6.768;2023-10-19T00:59:36;99153.56;;;10.92;100.00
4972;BME280;2501;51.214;6.768;2023-10-19T01:02:09;99157.91;;;10.93;100.00
4972;BME280;2501;51.214;6.768;2023-10-19T01:04:53;99152.56;;;10.99;100.00
4972;BME280;2501;51.214;6.768;2023-10-19T01:07:26;99155.19;;;10.99;100.00
4972;BME280;2501;51.214;6.768;2023-10-19T01:09:56;99154.31;;;10.99;100.00
4972;BME280;2501;51.214;6.768;2023-10-19T01:12:27;99146.44;;;10.99;100.00
4972;BME280;2501;51.214;6.768;2023-10-19T01:15:07;99130.63;;;11.03;100.00
4972;BME280;2501;51.214;6.768;2023-10-19T01:17:38;99129.00;;;10.96;100.00
4972;BME280;2501;51.214;6.768;2023-10-19T01:20:10;99146.53;;;10.94;100.00
4972;BME280;2501;51.214;6.768;2023-10-19T01:22:51;99148.22;;;10.97;100.00
4972;BME280;2501;51.214;6.768;2023-10-19T01:25:32;99146.47;;;10.97;100.00
4972;BME280;2501;51.214;6.768;2023-10-19T01:28:08;99149.06;;;10.99;100.00
4972;BME280;2501;51.214;6.768;2023-10-19T01:30:42;99160.44;;;10.99;100.00
4972;BME280;2501;51.214;6.768;2023-10-19T01:33:10;99159.50;;;11.02;100.00
4972;BME280;2501;51.214;6.768;2023-10-19T01:35:42;99157.75;;;11.02;100.00
4972;BME280;2501;51.214;6.768;2023-10-19T01:38:25;99151.41;;;11.11;100.00
4972;BME280;2501;51.214;6.768;2023-10-19T01:40:56;99144.56;;;11.05;100.00
4972;BME280;2501;51.214;6.768;2023-10-19T01:43:24;99143.66;;;11.06;100.00
4972;BME280;2501;51.214;6.768;2023-10-19T01:45:56;99136.56;;;11.10;100.00
4972;BME280;2501;51.214;6.768;2023-10-19T01:48:22;99136.50;;;11.13;100.00
4972;BME280;2501;51.214;6.768;2023-10-19T01:50:59;99132.69;;;11.26;100.00
4972;BME280;2501;51.214;6.768;2023-10-19T01:53:27;99122.38;;;11.20;100.00
4972;BME280;2501;51.214;6.768;2023-10-19T01:55:57;99121.50;;;11.20;100.00
4972;BME280;2501;51.214;6.768;2023-10-19T01:58:23;99128.41;;;11.24;100.00
4972;BME280;2501;51.214;6.768;2023-10-19T02:00:53;99128.38;;;11.25;100.00
4972;BME280;2501;51.214;6.768;2023-10-19T02:03:21;99127.38;;;11.29;100.00
4972;BME280;2501;51.214;6.768;2023-10-19T02:05:57;99128.25;;;11.30;100.00
4972;BME280;2501;51.214;6.768;2023-10-19T02:08:27;99126.44;;;11.33;100.00
4972;BME280;2501;51.214;6.768;2023-10-19T02:10:55;99121.97;;;11.37;100.00
4972;BME280;2501;51.214;6.768;2023-10-19T02:13:23;99114.78;;;11.45;100.00
4972;BME280;2501;51.214;6.768;2023-10-19T02:15:51;99123.47;;;11.47;100.00
4972;BME280;2501;51.214;6.768;2023-10-19T02:18:17;99122.47;;;11.52;100.00
4972;BME280;2501;51.214;6.768;2023-10-19T02:20:45;99116.25;;;11.57;100.00
4972;BME280;2501;51.214;6.768;2023-10-19T02:23:13;99121.38;;;11.61;100.00
4972;BME280;2501;51.214;6.768;2023-10-19T02:25:45;99115.19;;;11.64;100.00
4972;BME280;2501;51.214;6.768;2023-10-19T02:28:12;99117.78;;;11.65;100.00
4972;BME280;2501;51.214;6.768;2023-10-19T02:30:40;99118.66;;;11.66;100.00
4972;BME280;2501;51.214;6.768;2023-10-19T02:33:07;99110.78;;;11.66;100.00
4972;BME280;2501;51.214;6.768;2023-10-19T02:35:37;99106.38;;;11.66;100.00
4972;BME280;2501;51.214;6.768;2023-10-19T02:38:03;99101.91;;;11.70;100.00
4972;BME280;2501;51.214;6.768;2023-10-19T02:40:32;99101.06;;;11.69;100.00
4972;BME280;2501;51.214;6.768;2023-10-19T02:43:06;99102.72;;;11.73;100.00
4972;BME280;2501;51.214;6.768;2023-10-19T02:45:31;99101.84;;;11.73;100.00
4972;BME280;2501;51.214;6.768;2023-10-19T02:48:00;99102.69;;;11.75;100.00
4972;BME280;2501;51.214;6.768;2023-10-19T02:50:26;99109.72;;;11.73;100.00
4972;BME280;2501;51.214;6.768;2023-10-19T02:52:54;99109.69;;;11.74;100.00
4972;BME280;2501;51.214;6.768;2023-10-19T02:55:20;99107.97;;;11.73;100.00
4972;BME280;2501;51.214;6.768;2023-10-19T02:57:50;99104.41;;;11.77;100.00
4972;BME280;2501;51.214;6.768;2023-10-19T03:00:19;99109.69;;;11.74;100.00
4972;BME280;2501;51.214;6.768;2023-10-19T03:02:48;99103.59;;;11.74;100.00
4972;BME280;2501;51.214;6.768;2023-10-19T03:05:17;99100.91;;;11.77;100.00
4972;BME280;2501;51.214;6.768;2023-10-19T03:07:46;99107.03;;;11.77;100.00
4972;BME280;2501;51.214;6.768;2023-10-19T03:10:12;99094.66;;;11.81;100.00
4972;BME280;2501;51.214;6.768;2023-10-19T03:12:49;99100.78;;;11.81;100.00
4972;BME280;2501;51.214;6.768;2023-10-19T03:15:18;99097.25;;;11.82;100.00
4972;BME280;2501;51.214;6.768;2023-10-19T03:17:47;99083.06;;;11.90;100.00
4972;BME280;2501;51.214;6.768;2023-10-19T03:20:14;99083.31;;;11.79;100.00
4972;BME280;2501;51.214;6.768;2023-10-19T03:22:43;99078.91;;;11.81;100.00
4972;BME280;2501;51.214;6.768;2023-10-19T03:25:09;99084.19;;;11.79;100.00
4972;BME280;2501;51.214;6.768;2023-10-19T03:28:10;99084.22;;;11.78;100.00
4972;BME280;2501;51.214;6.768;2023-10-19T03:30:39;99076.31;;;11.79;100.00
4972;BME280;2501;51.214;6.768;2023-10-19T03:33:08;99083.28;;;11.80;100.00
4972;BME280;2501;51.214;6.768;2023-10-19T03:35:38;99080.69;;;11.79;100.00
4972;BME280;2501;51.214;6.768;2023-10-19T03:38:07;99075.38;;;11.82;100.00
4972;BME280;2501;51.214;6.768;2023-10-19T03:40:41;99078.91;;;11.81;100.00
4972;BME280;2501;51.214;6.768;2023-10-19T03:43:24;99079.59;;;11.89;100.00
4972;BME280;2501;51.214;6.768;2023-10-19T03:46:09;99069.16;;;11.86;100.00
4972;BME280;2501;51.214;6.768;2023-10-19T03:48:48;99067.38;;;11.87;100.00
4972;BME280;2501;51.214;6.768;2023-10-19T03:51:16;99059.47;;;11.88;100.00
4972;BME280;2501;51.214;6.768;2023-10-19T03:53:50;99048.66;;;11.99;100.00
4972;BME280;2501;51.214;6.768;2023-10-19T03:56:20;99050.50;;;11.95;100.00
4972;BME280;2501;51.214;6.768;2023-10-19T03:58:49;99049.59;;;11.96;100.00
4972;BME280;2501;51.214;6.768;2023-10-19T04:01:21;99048.72;;;11.96;100.00
4972;BME280;2501;51.214;6.768;2023-10-19T04:03:49;99039.41;;;12.16;100.00
4972;BME280;2501;51.214;6.768;2023-10-19T04:06:20;99048.59;;;12.02;100.00
4972;BME280;2501;51.214;6.768;2023-10-19T04:08:49;99045.16;;;11.98;100.00
4972;BME280;2501;51.214;6.768;2023-10-19T04:11:18;99041.63;;;11.99;100.00
4972;BME280;2501;51.214;6.768;2023-10-19T04:13:58;99040.69;;;12.02;100.00
4972;BME280;2501;51.214;6.768;2023-10-19T04:16:31;99039.88;;;12.00;100.00
4972;BME280;2501;51.214;6.768;2023-10-19T04:19:02;99038.97;;;12.01;100.00
4972;BME280;2501;51.214;6.768;2023-10-19T04:21:31;99045.84;;;12.06;100.00
4972;BME280;2501;51.214;6.768;2023-10-19T04:24:04;99040.59;;;12.06;100.00
4972;BME280;2501;51.214;6.768;2023-10-19T04:26:33;99048.44;;;12.08;100.00
4972;BME280;2501;51.214;6.768;2023-10-19T04:29:03;99045.00;;;12.04;100.00
4972;BME280;2501;51.214;6.768;2023-10-19T04:31:38;99050.19;;;12.07;100.00
4972;BME280;2501;51.214;6.768;2023-10-19T04:34:15;99047.06;;;12.26;100.00
4972;BME280;2501;51.214;6.768;2023-10-19T04:36:46;99052.84;;;12.06;100.00
4972;BME280;2501;51.214;6.768;2023-10-19T04:39:15;99049.59;;;11.96;100.00
4972;BME280;2501;51.214;6.768;2023-10-19T04:41:45;99051.53;;;11.90;100.00
4972;BME280;2501;51.214;6.768;2023-10-19T04:44:14;99052.41;;;11.90;100.00
4972;BME280;2501;51.214;6.768;2023-10-19T04:46:45;99046.22;;;11.93;100.00
4972;BME280;2501;51.214;6.768;2023-10-19T04:49:13;99040.84;;;11.96;100.00
4972;BME280;2501;51.214;6.768;2023-10-19T04:51:42;99043.38;;;12.00;100.00
4972;BME280;2501;51.214;6.768;2023-10-19T04:54:10;99034.47;;;12.06;100.00
4972;BME280;2501;51.214;6.768;2023-10-19T04:56:39;99040.53;;;12.08;100.00
4972;BME280;2501;51.214;6.768;2023-10-19T04:59:07;99036.13;;;12.10;100.00
4972;BME280;2501;51.214;6.768;2023-10-19T05:01:35;99047.44;;;12.12;100.00
4972;BME280;2501;51.214;6.768;2023-10-19T05:04:08;99043.88;;;12.13;100.00
4972;BME280;2501;51.214;6.768;2023-10-19T05:06:38;99045.34;;;12.25;100.00
4972;BME280;2501;51.214;6.768;2023-10-19T05:09:06;99050.63;;;12.23;100.00
4972;BME280;2501;51.214;6.768;2023-10-19T05:11:41;99053.13;;;12.28;100.00
4972;BME280;2501;51.214;6.768;2023-10-19T05:14:11;99052.16;;;12.30;100.00
4972;BME280;2501;51.214;6.768;2023-10-19T05:16:40;99048.81;;;12.25;100.00
4972;BME280;2501;51.214;6.768;2023-10-19T05:19:11;99051.44;;;12.25;100.00
4972;BME280;2501;51.214;6.768;2023-10-19T05:21:39;99038.31;;;12.25;100.00
4972;BME280;2501;51.214;6.768;2023-10-19T05:24:09;99042.69;;;12.25;100.00
4972;BME280;2501;51.214;6.768;2023-10-19T05:26:37;99048.75;;;12.28;100.00
4972;BME280;2501;51.214;6.768;2023-10-19T05:29:06;99053.03;;;12.31;100.00
4972;BME280;2501;51.214;6.768;2023-10-19T05:31:34;99040.69;;;12.33;100.00
4972;BME280;2501;51.214;6.768;2023-10-19T05:34:02;99039.69;;;12.38;100.00
4972;BME280;2501;51.214;6.768;2023-10-19T05:36:36;99049.38;;;12.36;100.00
4972;BME280;2501;51.214;6.768;2023-10-19T05:39:04;99045.09;;;12.32;100.00
4972;BME280;2501;51.214;6.768;2023-10-19T05:41:33;99050.34;;;12.32;100.00
4972;BME280;2501;51.214;6.768;2023-10-19T05:44:04;99052.00;;;12.36;100.00
4972;BME280;2501;51.214;6.768;2023-10-19T05:46:33;99055.53;;;12.35;100.00
4972;BME280;2501;51.214;6.768;2023-10-19T05:49:01;99051.13;;;12.36;100.00
4972;BME280;2501;51.214;6.768;2023-10-19T05:51:31;99055.53;;;12.35;100.00
4972;BME280;2501;51.214;6.768;2023-10-19T05:54:03;99055.53;;;12.35;100.00
4972;BME280;2501;51.214;6.768;2023-10-19T05:56:33;99052.75;;;12.41;100.00
4972;BME280;2501;51.214;6.768;2023-10-19T05:59:03;99060.63;;;12.41;100.00
4972;BME280;2501;51.214;6.768;2023-10-19T06:01:32;99056.28;;;12.40;100.00
4972;BME280;2501;51.214;6.768;2023-10-19T06:04:00;99061.50;;;12.42;100.00
4972;BME280;2501;51.214;6.768;2023-10-19T06:06:29;99058.00;;;12.41;100.00
4972;BME280;2501;51.214;6.768;2023-10-19T06:08:57;99068.31;;;12.47;100.00
4972;BME280;2501;51.214;6.768;2023-10-19T06:11:31;99074.41;;;12.49;100.00
4972;BME280;2501;51.214;6.768;2023-10-19T06:14:03;99062.94;;;12.52;100.00
4972;BME280;2501;51.214;6.768;2023-10-19T06:16:35;99075.19;;;12.53;100.00
4972;BME280;2501;51.214;6.768;2023-10-19T06:19:03;99070.88;;;12.50;100.00
4972;BME280;2501;51.214;6.768;2023-10-19T06:21:32;99076.13;;;12.50;100.00
4972;BME280;2501;51.214;6.768;2023-10-19T06:24:01;99080.53;;;12.50;100.00
4972;BME280;2501;51.214;6.768;2023-10-19T06:26:32;99084.88;;;12.51;100.00
4972;BME280;2501;51.214;6.768;2023-10-19T06:29:01;99092.69;;;12.54;100.00
4972;BME280;2501;51.214;6.768;2023-10-19T06:31:30;99089.16;;;12.55;100.00
4972;BME280;2501;51.214;6.768;2023-10-19T06:33:58;99083.03;;;12.54;100.00
4972;BME280;2501;51.214;6.768;2023-10-19T06:36:28;99083.03;;;12.54;100.00
4972;BME280;2501;51.214;6.768;2023-10-19T06:38:57;99087.34;;;12.57;100.00
4972;BME280;2501;51.214;6.768;2023-10-19T06:41:34;99087.31;;;12.59;100.00
4972;BME280;2501;51.214;6.768;2023-10-19T06:44:05;99084.69;;;12.59;100.00
4972;BME280;2501;51.214;6.768;2023-10-19T06:46:34;99081.06;;;12.63;100.00
4972;BME280;2501;51.214;6.768;2023-10-19T06:49:04;99086.06;;;12.70;100.00
4972;BME280;2501;51.214;6.768;2023-10-19T06:51:33;99086.94;;;12.71;100.00
4972;BME280;2501;51.214;6.768;2023-10-19T06:54:02;99087.81;;;12.71;100.00
4972;BME280;2501;51.214;6.768;2023-10-19T06:56:36;99092.06;;;12.75;100.00
4972;BME280;2501;51.214;6.768;2023-10-19T06:59:05;99085.94;;;12.75;100.00
4972;BME280;2501;51.214;6.768;2023-10-19T07:01:34;99083.03;;;12.84;100.00
4972;BME280;2501;51.214;6.768;2023-10-19T07:04:02;99080.41;;;12.84;100.00
4972;BME280;2501;51.214;6.768;2023-10-19T07:06:31;99085.72;;;12.82;100.00
4972;BME280;2501;51.214;6.768;2023-10-19T07:09:00;99086.41;;;12.89;100.00
4972;BME280;2501;51.214;6.768;2023-10-19T07:11:31;99093.44;;;12.88;100.00
4972;BME280;2501;51.214;6.768;2023-10-19T07:14:02;99087.22;;;12.91;100.00
4972;BME280;2501;51.214;6.768;2023-10-19T07:16:32;99095.94;;;12.93;100.00
4972;BME280;2501;51.214;6.768;2023-10-19T07:19:01;99097.56;;;12.97;100.00
4972;BME280;2501;51.214;6.768;2023-10-19T07:21:30;99094.06;;;12.97;100.00
4972;BME280;2501;51.214;6.768;2023-10-19T07:24:01;99103.78;;;14.03;100.00
4972;BME280;2501;51.214;6.768;2023-10-19T07:26:31;99106.09;;;14.14;100.00
4972;BME280;2501;51.214;6.768;2023-10-19T07:29:09;99104.47;;;13.31;100.00
4972;BME280;2501;51.214;6.768;2023-10-19T07:31:40;99100.72;;;13.08;100.00
4972;BME280;2501;51.214;6.768;2023-10-19T07:34:08;99103.41;;;13.07;100.00
4972;BME280;2501;51.214;6.768;2023-10-19T07:36:40;99106.84;;;13.09;100.00
4972;BME280;2501;51.214;6.768;2023-10-19T07:39:10;99104.97;;;13.14;100.00
4972;BME280;2501;51.214;6.768;2023-10-19T07:41:44;99096.97;;;13.17;100.00
4972;BME280;2501;51.214;6.768;2023-10-19T07:44:15;99097.47;;;13.30;100.00
4972;BME280;2501;51.214;6.768;2023-10-19T07:46:44;99094.59;;;13.37;100.00
4972;BME280;2501;51.214;6.768;2023-10-19T07:49:12;99101.72;;;13.34;100.00
4972;BME280;2501;51.214;6.768;2023-10-19T07:51:45;99093.72;;;13.65;100.00
4972;BME280;2501;51.214;6.768;2023-10-19T07:54:15;99104.66;;;13.51;100.00
4972;BME280;2501;51.214;6.768;2023-10-19T07:56:44;99101.03;;;13.55;100.00
4972;BME280;2501;51.214;6.768;2023-10-19T07:59:16;99092.66;;;13.69;100.00
4972;BME280;2501;51.214;6.768;2023-10-19T08:01:45;99088.16;;;13.72;100.00
4972;BME280;2501;51.214;6.768;2023-10-19T08:04:13;99086.50;;;13.70;100.00
4972;BME280;2501;51.214;6.768;2023-10-19T08:06:42;99087.00;;;13.81;100.00
4972;BME280;2501;51.214;6.768;2023-10-19T08:09:10;99094.41;;;13.96;100.00
4972;BME280;2501;51.214;6.768;2023-10-19T08:11:43;99091.63;;;14.01;100.00
4972;BME280;2501;51.214;6.768;2023-10-19T08:14:12;99088.84;;;14.28;100.00
4972;BME280;2501;51.214;6.768;2023-10-19T08:16:44;99084.53;;;14.52;100.00
4972;BME280;2501;51.214;6.768;2023-10-19T08:19:12;99083.50;;;14.80;100.00
4972;BME280;2501;51.214;6.768;2023-10-19T08:21:41;99077.50;;;14.75;100.00
4972;BME280;2501;51.214;6.768;2023-10-19T08:24:09;99076.31;;;14.83;100.00
4972;BME280;2501;51.214;6.768;2023-10-19T08:26:39;99076.88;;;14.91;100.00
4972;BME280;2501;51.214;6.768;2023-10-19T08:29:07;99078.00;;;14.86;100.00
4972;BME280;2501;51.214;6.768;2023-10-19T08:31:38;99071.34;;;15.21;100.00
4972;BME280;2501;51.214;6.768;2023-10-19T08:34:10;99071.72;;;15.55;100.00
4972;BME280;2501;51.214;6.768;2023-10-19T08:36:39;99074.09;;;15.61;100.00
4972;BME280;2501;51.214;6.768;2023-10-19T08:39:09;99068.19;;;15.55;100.00
4972;BME280;2501;51.214;6.768;2023-10-19T08:41:39;99065.06;;;15.67;100.00
4972;BME280;2501;51.214;6.768;2023-10-19T08:44:08;99059.00;;;15.21;100.00
4972;BME280;2501;51.214;6.768;2023-10-19T08:46:42;99063.72;;;15.35;100.00
4972;BME280;2501;51.214;6.768;2023-10-19T08:49:15;99061.16;;;15.55;100.00
4972;BME280;2501;51.214;6.768;2023-10-19T08:51:46;99057.56;;;16.19;100.00
4972;BME280;2501;51.214;6.768;2023-10-19T08:54:15;99066.03;;;15.86;100.00
4972;BME280;2501;51.214;6.768;2023-10-19T08:56:43;99065.38;;;16.01;100.00
4972;BME280;2501;51.214;6.768;2023-10-19T08:59:13;99058.91;;;16.09;100.00
4972;BME280;2501;51.214;6.768;2023-10-19T09:01:42;99058.50;;;15.97;100.00
4972;BME280;2501;51.214;6.768;2023-10-19T09:04:11;99057.59;;;15.77;100.00
4972;BME280;2501;51.214;6.768;2023-10-19T09:06:44;99056.19;;;16.10;100.00
4972;BME280;2501;51.214;6.768;2023-10-19T09:09:15;99052.56;;;15.92;100.00
4972;BME280;2501;51.214;6.768;2023-10-19T09:11:45;99055.91;;;15.96;100.00
4972;BME280;2501;51.214;6.768;2023-10-19T09:14:14;99054.91;;;15.78;100.00
4972;BME280;2501;51.214;6.768;2023-10-19T09:16:53;99050.53;;;15.57;100.00
4972;BME280;2501;51.214;6.768;2023-10-19T09:19:38;99039.25;;;15.94;100.00
4972;BME280;2501;51.214;6.768;2023-10-19T09:22:10;99031.59;;;16.08;100.00
4972;BME280;2501;51.214;6.768;2023-10-19T09:24:44;99034.34;;;16.25;100.00
4972;BME280;2501;51.214;6.768;2023-10-19T09:27:16;99030.97;;;16.22;100.00
4972;BME280;2501;51.214;6.768;2023-10-19T09:29:46;99018.94;;;15.94;100.00
4972;BME280;2501;51.214;6.768;2023-10-19T09:32:15;99016.13;;;16.38;100.00
4972;BME280;2501;51.214;6.768;2023-10-19T09:34:45;99026.50;;;16.24;100.00
4972;BME280;2501;51.214;6.768;2023-10-19T09:37:17;99020.72;;;16.14;100.00
4972;BME280;2501;51.214;6.768;2023-10-19T09:39:46;99013.16;;;16.07;100.00
4972;BME280;2501;51.214;6.768;2023-10-19T09:42:16;99011.59;;;16.21;100.00
4972;BME280;2501;51.214;6.768;2023-10-19T09:44:49;99022.72;;;16.48;100.00
4972;BME280;2501;51.214;6.768;2023-10-19T09:47:25;99020.50;;;16.39;100.00
4972;BME280;2501;51.214;6.768;2023-10-19T09:49:56;99017.25;;;16.32;100.00
4972;BME280;2501;51.214;6.768;2023-10-19T09:52:28;99018.28;;;16.69;100.00
4972;BME280;2501;51.214;6.768;2023-10-19T09:55:00;99013.41;;;16.79;100.00
4972;BME280;2501;51.214;6.768;2023-10-19T09:57:35;99005.09;;;16.86;100.00
4972;BME280;2501;51.214;6.768;2023-10-19T10:00:06;98994.88;;;17.15;100.00
4972;BME280;2501;51.214;6.768;2023-10-19T10:02:38;99002.75;;;17.52;98.04
4972;BME280;2501;51.214;6.768;2023-10-19T10:08:32;99000.03;;;18.05;91.45
4972;BME280;2501;51.214;6.768;2023-10-19T10:11:20;98998.66;;;17.81;91.75
4972;BME280;2501;51.214;6.768;2023-10-19T10:13:50;98997.91;;;17.43;92.94
4972;BME280;2501;51.214;6.768;2023-10-19T10:16:22;99005.69;;;17.29;92.92
4972;BME280;2501;51.214;6.768;2023-10-19T10:18:55;98999.25;;;17.16;93.39
4972;BME280;2501;51.214;6.768;2023-10-19T10:21:25;98991.31;;;17.16;93.47
4972;BME280;2501;51.214;6.768;2023-10-19T10:23:59;98994.66;;;17.19;93.92
4972;BME280;2501;51.214;6.768;2023-10-19T10:26:29;98993.09;;;17.15;94.67
4972;BME280;2501;51.214;6.768;2023-10-19T10:29:10;98996.16;;;17.25;93.97
4972;BME280;2501;51.214;6.768;2023-10-19T10:31:42;98992.16;;;17.16;95.58
4972;BME280;2501;51.214;6.768;2023-10-19T10:34:12;98987.69;;;17.35;96.37
4972;BME280;2501;51.214;6.768;2023-10-19T10:37:01;98993.88;;;17.70;93.71
4972;BME280;2501;51.214;6.768;2023-10-19T10:39:36;98994.31;;;17.44;93.78
4972;BME280;2501;51.214;6.768;2023-10-19T10:42:07;98992.25;;;17.85;93.83
4972;BME280;2501;51.214;6.768;2023-10-19T10:48:23;98986.31;;;17.63;93.90
4972;BME280;2501;51.214;6.768;2023-10-19T10:51:14;98983.72;;;18.13;91.02
4972;BME280;2501;51.214;6.768;2023-10-19T10:53:43;98990.69;;;17.98;89.47
4972;BME280;2501;51.214;6.768;2023-10-19T10:56:15;98984.69;;;17.78;90.15
4972;BME280;2501;51.214;6.768;2023-10-19T10:58:44;98997.72;;;17.65;90.86
4972;BME280;2501;51.214;6.768;2023-10-19T11:01:13;98986.47;;;17.60;91.20
4972;BME280;2501;51.214;6.768;2023-10-19T11:03:42;98973.47;;;17.72;89.92
4972;BME280;2501;51.214;6.768;2023-10-19T11:06:12;98969.81;;;17.75;90.65
4972;BME280;2501;51.214;6.768;2023-10-19T11:08:40;98974.06;;;17.95;90.05
4972;BME280;2501;51.214;6.768;2023-10-19T11:11:09;98961.16;;;18.37;87.19
4972;BME280;2501;51.214;6.768;2023-10-19T11:13:41;98956.50;;;18.09;86.79
4972;BME280;2501;51.214;6.768;2023-10-19T11:16:10;98951.19;;;18.09;86.70
4972;BME280;2501;51.214;6.768;2023-10-19T11:18:40;98944.94;;;18.11;85.54
4972;BME280;2501;51.214;6.768;2023-10-19T11:21:11;98944.69;;;18.15;86.57
4972;BME280;2501;51.214;6.768;2023-10-19T11:23:42;98940.38;;;17.97;87.25
4972;BME280;2501;51.214;6.768;2023-10-19T11:26:11;98931.84;;;18.23;86.36
4972;BME280;2501;51.214;6.768;2023-10-19T11:28:42;98930.72;;;18.12;85.97
4972;BME280;2501;51.214;6.768;2023-10-19T11:31:16;98937.19;;;17.90;86.66
4972;BME280;2501;51.214;6.768;2023-10-19T11:33:47;98932.00;;;18.04;86.70
4972;BME280;2501;51.214;6.768;2023-10-19T11:36:17;98922.50;;;18.49;84.84
4972;BME280;2501;51.214;6.768;2023-10-19T11:38:48;98924.38;;;18.47;83.77
4972;BME280;2501;51.214;6.768;2023-10-19T11:41:18;98924.16;;;18.67;80.95
4972;BME280;2501;51.214;6.768;2023-10-19T11:43:49;98928.44;;;18.37;82.53
4972;BME280;2501;51.214;6.768;2023-10-19T11:46:18;98922.97;;;18.40;83.41
4972;BME280;2501;51.214;6.768;2023-10-19T11:48:48;98916.78;;;18.24;83.72
4972;BME280;2501;51.214;6.768;2023-10-19T11:51:17;98915.44;;;18.32;84.18
4972;BME280;2501;51.214;6.768;2023-10-19T11:53:45;98914.75;;;18.29;84.48
4972;BME280;2501;51.214;6.768;2023-10-19T11:56:13;98915.91;;;18.07;85.57
4972;BME280;2501;51.214;6.768;2023-10-19T11:58:42;98920.78;;;17.99;87.10
4972;BME280;2501;51.214;6.768;2023-10-19T12:01:15;98905.66;;;17.84;87.19
4972;BME280;2501;51.214;6.768;2023-10-19T12:03:44;98905.56;;;18.19;86.01
4972;BME280;2501;51.214;6.768;2023-10-19T12:06:14;98907.13;;;18.23;86.17
4972;BME280;2501;51.214;6.768;2023-10-19T12:08:44;98909.22;;;18.33;86.30
4972;BME280;2501;51.214;6.768;2023-10-19T12:11:13;98907.84;;;18.42;85.74
4972;BME280;2501;51.214;6.768;2023-10-19T12:13:45;98911.34;;;18.27;86.25
4972;BME280;2501;51.214;6.768;2023-10-19T12:16:17;98914.69;;;18.30;86.31
4972;BME280;2501;51.214;6.768;2023-10-19T12:18:49;98903.00;;;17.84;88.40
4972;BME280;2501;51.214;6.768;2023-10-19T12:21:18;98906.28;;;17.89;90.03
4972;BME280;2501;51.214;6.768;2023-10-19T12:23:53;98900.34;;;17.84;90.29
4972;BME280;2501;51.214;6.768;2023-10-19T12:26:22;98892.03;;;17.74;91.29
4972;BME280;2501;51.214;6.768;2023-10-19T12:28:50;98887.53;;;17.77;91.96
4972;BME280;2501;51.214;6.768;2023-10-19T12:31:21;98894.66;;;17.92;91.78
4972;BME280;2501;51.214;6.768;2023-10-19T12:33:50;98901.75;;;17.91;92.22
4972;BME280;2501;51.214;6.768;2023-10-19T12:36:19;98901.38;;;17.99;91.50
4972;BME280;2501;51.214;6.768;2023-10-19T12:38:57;98895.59;;;17.91;91.97
4972;BME280;2501;51.214;6.768;2023-10-19T12:41:25;98893.78;;;18.24;90.21
4972;BME280;2501;51.214;6.768;2023-10-19T12:43:54;98913.03;;;18.12;91.59
4972;BME280;2501;51.214;6.768;2023-10-19T12:46:30;98903.72;;;17.88;92.48
4972;BME280;2501;51.214;6.768;2023-10-19T12:49:04;98905.84;;;18.30;93.17
4972;BME280;2501;51.214;6.768;2023-10-19T12:51:34;98908.66;;;17.78;93.12
4972;BME280;2501;51.214;6.768;2023-10-19T12:54:04;98906.25;;;17.73;94.80
4972;BME280;2501;51.214;6.768;2023-10-19T12:56:35;98889.31;;;17.59;96.35
4972;BME280;2501;51.214;6.768;2023-10-19T12:59:04;98893.19;;;17.52;97.28
4972;BME280;2501;51.214;6.768;2023-10-19T13:01:37;98881.66;;;17.53;96.13
4972;BME280;2501;51.214;6.768;2023-10-19T13:04:05;98889.09;;;17.46;97.17
4972;BME280;2501;51.214;6.768;2023-10-19T13:06:42;98891.91;;;17.43;97.84
4972;BME280;2501;51.214;6.768;2023-10-19T13:09:12;98898.50;;;17.34;98.11
4972;BME280;2501;51.214;6.768;2023-10-19T13:11:47;98898.13;;;17.25;99.21
4972;BME280;2501;51.214;6.768;2023-10-19T13:14:17;98912.47;;;17.21;100.00
4972;BME280;2501;51.214;6.768;2023-10-19T13:16:48;98916.28;;;17.15;100.00
4972;BME280;2501;51.214;6.768;2023-10-19T13:19:17;98909.59;;;17.08;100.00
4972;BME280;2501;51.214;6.768;2023-10-19T13:21:47;98908.50;;;17.12;100.00
4972;BME280;2501;51.214;6.768;2023-10-19T13:24:16;98904.00;;;17.14;100.00
4972;BME280;2501;51.214;6.768;2023-10-19T13:26:46;98904.13;;;16.94;100.00
4972;BME280;2501;51.214;6.768;2023-10-19T13:29:14;98903.84;;;16.81;100.00
4972;BME280;2501;51.214;6.768;2023-10-19T13:31:43;98910.72;;;16.85;100.00
4972;BME280;2501;51.214;6.768;2023-10-19T13:34:20;98904.31;;;16.72;100.00
4972;BME280;2501;51.214;6.768;2023-10-19T13:36:48;98907.59;;;16.77;100.00
4972;BME280;2501;51.214;6.768;2023-10-19T13:39:17;98900.06;;;16.68;100.00